Glendive, MT

5:32 PM MST on February 21, 2017 (GMT -0700)
Jefferson Elementary School | | Change Station
Active Advisory: Areal Flood Watch Active Notice: Areal Flood Watch

Elev 2119 ft 47.11 °N, 104.75 °W | Updated 19 seconds ago

Mostly Cloudy
Mostly Cloudy
45.0 °F
Feels Like 45 °F
N
0.0
Wind Variable Wind from NNW

Today
High -- | Low -- °F
--% Chance of Precip.
Yesterday
High -- | Low -- °F
Precip. -- in
Pressure 29.68 in
Visibility 10.0 miles
Clouds Few 7500 ft
Windchill 45 °F
Dew Point 39 °F
Humidity 80%
Rainfall 0.04 in
Snow Depth Not available.
6:52 AM 5:32 PM
Waning Crescent, 21% visible
METAR KGDV 212356Z AUTO 12006KT 10SM FEW075 08/04 A2963 RMK AO2 RAB09E50 SLP048 P0000 60002 T00780044 10111 20061 56005
Pressure 29.68 in
Visibility 10.0 miles
Clouds Few 7500 ft
Windchill 45 °F
Dew Point 39 °F
Humidity 80%
Rainfall 0.04 in
Snow Depth Not available.
6:52 AM 5:32 PM
Waning Crescent, 21% visible
METAR KGDV 212356Z AUTO 12006KT 10SM FEW075 08/04 A2963 RMK AO2 RAB09E50 SLP048 P0000 60002 T00780044 10111 20061 56005

Get Your Daily Forecast Email!

Thanks for signing up!

Be on the lookout for a verification email in your inbox.

You'll start receiving the daily forecast at 8 AM.

×

10-Day Weather Forecast

Almanac

Astronomy

Feb. 21, 2017 Rise Set
Actual Time
Civil Twilight
Nautical Twilight
Astronomical Twilight
Moon
Length of Visible Light
Length of Day
Tomorrow will be .
, % of the Moon is Illuminated

Today's Extremes

State Highs State Lows

Community

WunderPhotos

Upload Photos

1,962,540 photos uploaded!

WunderBlog® & News

Nearby

Air Quality

  Air Quality AQ Index Pollutant
Not available.

Snow Depth

Station Depth Elevation

Earthquake Activity

City Distance Mag. Time & Date
Minimum magnitude displayed is 2.5.

Coastal Water Temperatures

Place Temperature

Stations

Nearby Weather Stations

Station Location Temp. Windchill Dew Point Humidity Wind Precip. Elev Updated Type
                   

Watches & Warnings

Areal Flood Watch
Issued: 11:13 AM MST Feb. 21, 2017 – National Weather Service

... Flood Watch remains in effect through Wednesday afternoon...

The Flood Watch continues for

* portions of northeast Montana, including the following areas,
central and southern valley, Dawson, Richland, and Sheridan.

* Through Wednesday afternoon

* ice is breaking up and flowing along many of the rivers and
streams across the region. This includes the Yellowstone river
in the Glendive area. A new ice jam could form and bring
quickly rising water levels.

* An ice jam on the milk river in the Glasgow area continues to
contribute to High River levels. Levels continue to slowly rise
but are not expected to reach flood stage yet.

Precautionary/preparedness actions...

A Flood Watch means there is a potential for flooding based on
current forecasts.

You should monitor later forecasts and be alert for possible
flood warnings. Those living in areas prone to flooding should be
prepared to take action should flooding develop.